sensor_id;sensor_type;location;lat;lon;timestamp;pressure;altitude;pressure_sealevel;temperature;humidity
36190;BME280;22232;50.914;13.858;2023-05-19T00:02:37;98675.66;;;9.85;100.00
36190;BME280;22232;50.914;13.858;2023-05-19T00:05:06;98666.25;;;9.83;100.00
36190;BME280;22232;50.914;13.858;2023-05-19T00:07:36;98672.38;;;9.77;100.00
36190;BME280;22232;50.914;13.858;2023-05-19T00:10:05;98672.78;;;9.74;100.00
36190;BME280;22232;50.914;13.858;2023-05-19T00:12:33;98674.03;;;9.71;100.00
36190;BME280;22232;50.914;13.858;2023-05-19T00:15:02;98676.06;;;9.69;100.00
36190;BME280;22232;50.914;13.858;2023-05-19T00:17:30;98669.09;;;9.61;100.00
36190;BME280;22232;50.914;13.858;2023-05-19T00:19:57;98666.63;;;9.60;100.00
36190;BME280;22232;50.914;13.858;2023-05-19T00:22:25;98667.88;;;9.57;100.00
36190;BME280;22232;50.914;13.858;2023-05-19T00:24:52;98666.81;;;9.52;100.00
36190;BME280;22232;50.914;13.858;2023-05-19T00:27:20;98660.50;;;9.53;100.00
36190;BME280;22232;50.914;13.858;2023-05-19T00:29:47;98657.22;;;9.51;100.00
36190;BME280;22232;50.914;13.858;2023-05-19T00:32:15;98660.28;;;9.54;100.00
36190;BME280;22232;50.914;13.858;2023-05-19T00:34:43;98657.22;;;9.57;100.00
36190;BME280;22232;50.914;13.858;2023-05-19T00:37:10;98650.03;;;9.58;100.00
36190;BME280;22232;50.914;13.858;2023-05-19T00:39:38;98646.16;;;9.60;100.00
36190;BME280;22232;50.914;13.858;2023-05-19T00:42:05;98654.75;;;9.56;100.00
36190;BME280;22232;50.914;13.858;2023-05-19T00:44:39;98650.44;;;9.55;100.00
36190;BME280;22232;50.914;13.858;2023-05-19T00:47:07;98651.88;;;9.57;100.00
36190;BME280;22232;50.914;13.858;2023-05-19T00:49:35;98649.03;;;9.59;100.00
36190;BME280;22232;50.914;13.858;2023-05-19T00:52:04;98655.97;;;9.60;100.00
36190;BME280;22232;50.914;13.858;2023-05-19T00:54:33;98662.13;;;9.54;100.00
36190;BME280;22232;50.914;13.858;2023-05-19T00:57:01;98652.28;;;9.48;100.00
36190;BME280;22232;50.914;13.858;2023-05-19T00:59:29;98651.06;;;9.44;100.00
36190;BME280;22232;50.914;13.858;2023-05-19T01:01:57;98656.78;;;9.40;100.00
36190;BME280;22232;50.914;13.858;2023-05-19T01:04:25;98662.28;;;9.32;100.00
36190;BME280;22232;50.914;13.858;2023-05-19T01:06:52;98650.59;;;9.27;100.00
36190;BME280;22232;50.914;13.858;2023-05-19T01:09:23;98656.72;;;9.21;100.00
36190;BME280;22232;50.914;13.858;2023-05-19T01:11:51;98656.94;;;9.19;100.00
36190;BME280;22232;50.914;13.858;2023-05-19T01:14:19;98646.06;;;9.14;100.00
36190;BME280;22232;50.914;13.858;2023-05-19T01:16:55;98652.78;;;9.10;100.00
36190;BME280;22232;50.914;13.858;2023-05-19T01:25:51;98641.09;;;8.98;100.00
36190;BME280;22232;50.914;13.858;2023-05-19T01:31:20;98646.81;;;8.94;100.00
36190;BME280;22232;50.914;13.858;2023-05-19T01:33:52;98642.75;;;8.92;100.00
36190;BME280;22232;50.914;13.858;2023-05-19T01:36:21;98645.97;;;8.87;100.00
36190;BME280;22232;50.914;13.858;2023-05-19T01:38:51;98646.38;;;8.84;100.00
36190;BME280;22232;50.914;13.858;2023-05-19T01:41:20;98637.75;;;8.82;100.00
36190;BME280;22232;50.914;13.858;2023-05-19T01:43:50;98640.81;;;8.79;100.00
36190;BME280;22232;50.914;13.858;2023-05-19T01:46:18;98646.34;;;8.78;100.00
36190;BME280;22232;50.914;13.858;2023-05-19T01:48:47;98645.72;;;8.76;100.00
36190;BME280;22232;50.914;13.858;2023-05-19T01:51:15;98651.66;;;8.71;100.00
36190;BME280;22232;50.914;13.858;2023-05-19T01:53:43;98651.84;;;8.69;100.00
36190;BME280;22232;50.914;13.858;2023-05-19T01:56:15;98644.50;;;8.71;100.00
36190;BME280;22232;50.914;13.858;2023-05-19T01:58:45;98643.44;;;8.66;100.00
36190;BME280;22232;50.914;13.858;2023-05-19T02:01:34;98644.25;;;8.66;100.00
36190;BME280;22232;50.914;13.858;2023-05-19T02:07:12;98635.47;;;8.66;100.00
36190;BME280;22232;50.914;13.858;2023-05-19T02:09:56;98637.72;;;8.69;100.00
36190;BME280;22232;50.914;13.858;2023-05-19T02:12:34;98640.78;;;8.66;100.00
36190;BME280;22232;50.914;13.858;2023-05-19T02:15:10;98641.16;;;8.63;100.00
36190;BME280;22232;50.914;13.858;2023-05-19T02:17:40;98639.16;;;8.65;100.00
36190;BME280;22232;50.914;13.858;2023-05-19T02:20:09;98640.38;;;8.69;100.00
36190;BME280;22232;50.914;13.858;2023-05-19T02:22:38;98639.97;;;8.65;100.00
36190;BME280;22232;50.914;13.858;2023-05-19T02:25:06;98639.53;;;8.62;100.00
36190;BME280;22232;50.914;13.858;2023-05-19T02:27:37;98641.59;;;8.66;100.00
36190;BME280;22232;50.914;13.858;2023-05-19T02:30:05;98638.53;;;8.69;100.00
36190;BME280;22232;50.914;13.858;2023-05-19T02:32:36;98630.34;;;8.64;100.00
36190;BME280;22232;50.914;13.858;2023-05-19T02:35:04;98633.41;;;8.61;100.00
36190;BME280;22232;50.914;13.858;2023-05-19T02:37:32;98635.22;;;8.61;100.00
36190;BME280;22232;50.914;13.858;2023-05-19T02:40:00;98633.41;;;8.61;100.00
36190;BME280;22232;50.914;13.858;2023-05-19T02:42:29;98635.03;;;8.62;100.00
36190;BME280;22232;50.914;13.858;2023-05-19T02:44:56;98636.06;;;8.61;100.00
36190;BME280;22232;50.914;13.858;2023-05-19T02:47:24;98635.63;;;8.58;100.00
36190;BME280;22232;50.914;13.858;2023-05-19T02:49:52;98632.34;;;8.56;100.00
36190;BME280;22232;50.914;13.858;2023-05-19T02:52:20;98633.56;;;8.53;100.00
36190;BME280;22232;50.914;13.858;2023-05-19T02:54:48;98630.47;;;8.49;100.00
36190;BME280;22232;50.914;13.858;2023-05-19T02:57:15;98624.94;;;8.51;100.00
36190;BME280;22232;50.914;13.858;2023-05-19T02:59:43;98629.63;;;8.49;100.00
36190;BME280;22232;50.914;13.858;2023-05-19T03:02:11;98623.31;;;8.50;100.00
36190;BME280;22232;50.914;13.858;2023-05-19T03:04:39;98615.91;;;8.45;100.00
36190;BME280;22232;50.914;13.858;2023-05-19T03:07:09;98615.50;;;8.42;100.00
36190;BME280;22232;50.914;13.858;2023-05-19T03:09:37;98613.06;;;8.40;100.00
36190;BME280;22232;50.914;13.858;2023-05-19T03:12:05;98615.09;;;8.38;100.00
36190;BME280;22232;50.914;13.858;2023-05-19T03:14:34;98611.56;;;8.38;100.00
36190;BME280;22232;50.914;13.858;2023-05-19T03:17:04;98610.00;;;8.43;100.00
36190;BME280;22232;50.914;13.858;2023-05-19T03:19:34;98614.28;;;8.44;100.00
36190;BME280;22232;50.914;13.858;2023-05-19T03:22:02;98615.31;;;8.43;100.00
36190;BME280;22232;50.914;13.858;2023-05-19T03:24:30;98622.59;;;8.35;100.00
36190;BME280;22232;50.914;13.858;2023-05-19T03:26:58;98623.16;;;8.30;100.00
36190;BME280;22232;50.914;13.858;2023-05-19T03:29:25;98622.19;;;8.31;100.00
36190;BME280;22232;50.914;13.858;2023-05-19T03:31:53;98626.88;;;8.36;100.00
36190;BME280;22232;50.914;13.858;2023-05-19T03:34:21;98616.06;;;8.37;100.00
36190;BME280;22232;50.914;13.858;2023-05-19T03:36:49;98616.53;;;8.41;100.00
36190;BME280;22232;50.914;13.858;2023-05-19T03:39:17;98615.50;;;8.42;100.00
36190;BME280;22232;50.914;13.858;2023-05-19T03:41:47;98622.22;;;8.38;100.00
36190;BME280;22232;50.914;13.858;2023-05-19T03:44:15;98625.88;;;8.37;100.00
36190;BME280;22232;50.914;13.858;2023-05-19T03:46:43;98626.88;;;8.36;100.00
36190;BME280;22232;50.914;13.858;2023-05-19T03:49:29;98624.44;;;8.34;100.00
36190;BME280;22232;50.914;13.858;2023-05-19T03:52:20;98631.97;;;8.31;100.00
36190;BME280;22232;50.914;13.858;2023-05-19T03:54:56;98621.31;;;8.31;100.00
36190;BME280;22232;50.914;13.858;2023-05-19T03:57:24;98621.72;;;8.27;100.00
36190;BME280;22232;50.914;13.858;2023-05-19T03:59:53;98622.19;;;8.31;100.00
36190;BME280;22232;50.914;13.858;2023-05-19T04:02:20;98629.94;;;8.33;100.00
36190;BME280;22232;50.914;13.858;2023-05-19T04:04:48;98628.09;;;8.33;100.00
36190;BME280;22232;50.914;13.858;2023-05-19T04:07:17;98619.13;;;8.34;100.00
36190;BME280;22232;50.914;13.858;2023-05-19T04:09:45;98631.38;;;8.35;100.00
36190;BME280;22232;50.914;13.858;2023-05-19T04:12:12;98627.28;;;8.33;100.00
36190;BME280;22232;50.914;13.858;2023-05-19T04:14:40;98625.44;;;8.33;100.00
36190;BME280;22232;50.914;13.858;2023-05-19T04:17:09;98624.88;;;8.38;100.00
36190;BME280;22232;50.914;13.858;2023-05-19T04:19:37;98627.75;;;8.43;100.00
36190;BME280;22232;50.914;13.858;2023-05-19T04:22:04;98627.59;;;8.44;100.00
36190;BME280;22232;50.914;13.858;2023-05-19T04:24:32;98622.06;;;8.46;100.00
36190;BME280;22232;50.914;13.858;2023-05-19T04:27:00;98627.19;;;8.47;100.00
36190;BME280;22232;50.914;13.858;2023-05-19T04:29:29;98623.56;;;8.55;100.00
36190;BME280;22232;50.914;13.858;2023-05-19T04:31:56;98616.41;;;8.62;100.00
36190;BME280;22232;50.914;13.858;2023-05-19T04:34:24;98615.03;;;8.73;100.00
36190;BME280;22232;50.914;13.858;2023-05-19T04:36:51;98617.28;;;8.76;100.00
36190;BME280;22232;50.914;13.858;2023-05-19T04:39:21;98615.28;;;8.85;100.00
36190;BME280;22232;50.914;13.858;2023-05-19T04:41:50;98618.56;;;8.87;100.00
36190;BME280;22232;50.914;13.858;2023-05-19T04:44:20;98626.38;;;8.95;100.00
36190;BME280;22232;50.914;13.858;2023-05-19T04:46:49;98616.16;;;9.05;100.00
36190;BME280;22232;50.914;13.858;2023-05-19T04:49:22;98620.66;;;9.05;100.00
36190;BME280;22232;50.914;13.858;2023-05-19T04:51:50;98620.22;;;8.94;100.00
36190;BME280;22232;50.914;13.858;2023-05-19T04:54:25;98633.16;;;9.04;100.00
36190;BME280;22232;50.914;13.858;2023-05-19T04:56:54;98625.41;;;9.16;100.00
36190;BME280;22232;50.914;13.858;2023-05-19T04:59:24;98627.63;;;9.06;100.00
36190;BME280;22232;50.914;13.858;2023-05-19T05:01:52;98633.50;;;8.94;100.00
36190;BME280;22232;50.914;13.858;2023-05-19T05:04:19;98623.38;;;8.63;100.00
36190;BME280;22232;50.914;13.858;2023-05-19T05:06:47;98622.19;;;8.72;100.00
36190;BME280;22232;50.914;13.858;2023-05-19T05:09:17;98627.03;;;9.17;100.00
36190;BME280;22232;50.914;13.858;2023-05-19T05:11:46;98623.19;;;9.46;100.00
36190;BME280;22232;50.914;13.858;2023-05-19T05:14:14;98625.66;;;9.81;100.00
36190;BME280;22232;50.914;13.858;2023-05-19T05:16:42;98617.81;;;10.19;100.00
36190;BME280;22232;50.914;13.858;2023-05-19T05:19:15;98622.50;;;10.44;100.00
36190;BME280;22232;50.914;13.858;2023-05-19T05:21:43;98616.09;;;10.65;100.00
36190;BME280;22232;50.914;13.858;2023-05-19T05:24:14;98619.34;;;10.73;100.00
36190;BME280;22232;50.914;13.858;2023-05-19T05:26:49;98619.09;;;10.82;100.00
36190;BME280;22232;50.914;13.858;2023-05-19T05:29:16;98611.25;;;10.93;100.00
36190;BME280;22232;50.914;13.858;2023-05-19T05:31:44;98610.03;;;10.89;100.00
36190;BME280;22232;50.914;13.858;2023-05-19T05:34:12;98612.88;;;10.94;100.00
36190;BME280;22232;50.914;13.858;2023-05-19T05:36:40;98604.44;;;11.36;100.00
36190;BME280;22232;50.914;13.858;2023-05-19T05:39:08;98606.06;;;11.37;100.00
36190;BME280;22232;50.914;13.858;2023-05-19T05:41:37;98615.13;;;11.36;100.00
36190;BME280;22232;50.914;13.858;2023-05-19T05:44:09;98617.50;;;11.44;100.00
36190;BME280;22232;50.914;13.858;2023-05-19T05:46:40;98615.56;;;11.58;100.00
36190;BME280;22232;50.914;13.858;2023-05-19T05:49:08;98620.06;;;11.89;100.00
36190;BME280;22232;50.914;13.858;2023-05-19T05:51:39;98625.19;;;12.15;100.00
36190;BME280;22232;50.914;13.858;2023-05-19T05:54:11;98626.16;;;12.21;100.00
36190;BME280;22232;50.914;13.858;2023-05-19T05:56:44;98629.88;;;12.38;100.00
36190;BME280;22232;50.914;13.858;2023-05-19T05:59:13;98630.03;;;12.44;100.00
36190;BME280;22232;50.914;13.858;2023-05-19T06:01:43;98628.94;;;12.51;100.00
36190;BME280;22232;50.914;13.858;2023-05-19T06:04:11;98622.72;;;13.06;100.00
36190;BME280;22232;50.914;13.858;2023-05-19T06:06:38;98632.50;;;13.30;100.00
36190;BME280;22232;50.914;13.858;2023-05-19T06:09:07;98627.72;;;14.45;98.97
36190;BME280;22232;50.914;13.858;2023-05-19T06:11:35;98635.66;;;13.93;89.04
36190;BME280;22232;50.914;13.858;2023-05-19T06:14:04;98637.53;;;13.20;97.40
36190;BME280;22232;50.914;13.858;2023-05-19T06:16:51;98635.91;;;12.71;100.00
36190;BME280;22232;50.914;13.858;2023-05-19T06:19:20;98630.94;;;12.37;100.00
36190;BME280;22232;50.914;13.858;2023-05-19T06:21:48;98635.13;;;12.08;100.00
36190;BME280;22232;50.914;13.858;2023-05-19T06:24:15;98629.47;;;12.16;100.00
36190;BME280;22232;50.914;13.858;2023-05-19T06:26:43;98629.50;;;11.66;100.00
36190;BME280;22232;50.914;13.858;2023-05-19T06:29:10;98631.47;;;11.78;100.00
36190;BME280;22232;50.914;13.858;2023-05-19T06:31:39;98639.78;;;11.94;100.00
36190;BME280;22232;50.914;13.858;2023-05-19T06:34:10;98634.28;;;11.83;100.00
36190;BME280;22232;50.914;13.858;2023-05-19T06:36:39;98637.38;;;11.86;100.00
36190;BME280;22232;50.914;13.858;2023-05-19T06:39:08;98619.47;;;12.85;100.00
36190;BME280;22232;50.914;13.858;2023-05-19T06:41:36;98618.31;;;12.93;100.00
36190;BME280;22232;50.914;13.858;2023-05-19T06:44:06;98612.78;;;13.67;100.00
36190;BME280;22232;50.914;13.858;2023-05-19T06:46:35;98620.75;;;13.85;98.49
36190;BME280;22232;50.914;13.858;2023-05-19T06:49:03;98624.81;;;13.76;97.65
36190;BME280;22232;50.914;13.858;2023-05-19T06:51:36;98631.88;;;12.98;100.00
36190;BME280;22232;50.914;13.858;2023-05-19T06:54:03;98632.94;;;12.60;100.00
36190;BME280;22232;50.914;13.858;2023-05-19T06:56:31;98624.41;;;12.70;100.00
36190;BME280;22232;50.914;13.858;2023-05-19T06:58:59;98621.81;;;12.45;100.00
36190;BME280;22232;50.914;13.858;2023-05-19T07:01:32;98620.13;;;12.81;100.00
36190;BME280;22232;50.914;13.858;2023-05-19T07:04:01;98622.44;;;12.59;100.00
36190;BME280;22232;50.914;13.858;2023-05-19T07:06:29;98624.56;;;12.57;100.00
36190;BME280;22232;50.914;13.858;2023-05-19T07:08:57;98627.88;;;12.52;100.00
36190;BME280;22232;50.914;13.858;2023-05-19T07:11:25;98626.38;;;12.38;100.00
36190;BME280;22232;50.914;13.858;2023-05-19T07:13:53;98624.59;;;12.69;100.00
36190;BME280;22232;50.914;13.858;2023-05-19T07:16:26;98627.97;;;12.64;100.00
36190;BME280;22232;50.914;13.858;2023-05-19T07:18:54;98622.59;;;12.82;100.00
36190;BME280;22232;50.914;13.858;2023-05-19T07:21:22;98625.56;;;12.74;100.00
36190;BME280;22232;50.914;13.858;2023-05-19T07:23:50;98629.00;;;12.81;100.00
36190;BME280;22232;50.914;13.858;2023-05-19T07:26:17;98630.00;;;12.99;100.00
36190;BME280;22232;50.914;13.858;2023-05-19T07:28:45;98623.97;;;13.03;100.00
36190;BME280;22232;50.914;13.858;2023-05-19T07:31:12;98624.84;;;13.16;100.00
36190;BME280;22232;50.914;13.858;2023-05-19T07:33:40;98624.03;;;13.45;100.00
36190;BME280;22232;50.914;13.858;2023-05-19T07:36:07;98618.84;;;14.21;100.00
36190;BME280;22232;50.914;13.858;2023-05-19T07:38:35;98620.50;;;14.22;96.43
36190;BME280;22232;50.914;13.858;2023-05-19T07:41:04;98619.44;;;13.99;94.69
36190;BME280;22232;50.914;13.858;2023-05-19T07:43:32;98610.84;;;14.85;87.59
36190;BME280;22232;50.914;13.858;2023-05-19T07:45:59;98612.38;;;15.55;94.70
36190;BME280;22232;50.914;13.858;2023-05-19T07:48:27;98613.56;;;15.59;88.63
36190;BME280;22232;50.914;13.858;2023-05-19T07:50:55;98614.16;;;15.32;82.81
36190;BME280;22232;50.914;13.858;2023-05-19T07:53:23;98610.13;;;14.89;84.03
36190;BME280;22232;50.914;13.858;2023-05-19T07:55:51;98604.53;;;15.36;79.94
36190;BME280;22232;50.914;13.858;2023-05-19T07:58:18;98605.44;;;15.71;86.97
36190;BME280;22232;50.914;13.858;2023-05-19T08:00:46;98605.50;;;15.76;75.80
36190;BME280;22232;50.914;13.858;2023-05-19T08:03:14;98607.00;;;15.83;74.65
36190;BME280;22232;50.914;13.858;2023-05-19T08:05:44;98604.00;;;15.34;78.34
36190;BME280;22232;50.914;13.858;2023-05-19T08:11:45;98594.91;;;15.07;77.38
36190;BME280;22232;50.914;13.858;2023-05-19T08:14:16;98604.88;;;15.69;82.43
36190;BME280;22232;50.914;13.858;2023-05-19T08:16:44;98609.28;;;15.01;87.21
36190;BME280;22232;50.914;13.858;2023-05-19T08:19:12;98615.72;;;14.88;78.55
36190;BME280;22232;50.914;13.858;2023-05-19T08:21:40;98608.59;;;15.22;80.35
36190;BME280;22232;50.914;13.858;2023-05-19T08:24:08;98612.81;;;15.47;93.54
36190;BME280;22232;50.914;13.858;2023-05-19T08:26:36;98618.03;;;14.96;84.63
36190;BME280;22232;50.914;13.858;2023-05-19T08:29:04;98604.97;;;15.28;89.00
36190;BME280;22232;50.914;13.858;2023-05-19T08:31:31;98607.72;;;15.79;79.68
36190;BME280;22232;50.914;13.858;2023-05-19T08:33:59;98600.22;;;15.98;70.32
36190;BME280;22232;50.914;13.858;2023-05-19T08:36:27;98588.59;;;16.53;69.85
36190;BME280;22232;50.914;13.858;2023-05-19T08:38:55;98582.97;;;16.77;72.74
36190;BME280;22232;50.914;13.858;2023-05-19T08:41:23;98583.31;;;16.41;69.10
36190;BME280;22232;50.914;13.858;2023-05-19T08:43:50;98582.88;;;16.27;70.78
36190;BME280;22232;50.914;13.858;2023-05-19T08:46:20;98590.03;;;15.83;68.52
36190;BME280;22232;50.914;13.858;2023-05-19T08:48:51;98580.75;;;16.29;64.67
36190;BME280;22232;50.914;13.858;2023-05-19T08:51:33;98573.63;;;16.62;66.54
36190;BME280;22232;50.914;13.858;2023-05-19T08:54:13;98578.63;;;16.54;58.66
36190;BME280;22232;50.914;13.858;2023-05-19T08:56:43;98576.97;;;16.31;65.76
36190;BME280;22232;50.914;13.858;2023-05-19T08:59:14;98587.06;;;15.51;63.45
36190;BME280;22232;50.914;13.858;2023-05-19T09:01:44;98576.72;;;15.59;68.04
36190;BME280;22232;50.914;13.858;2023-05-19T09:04:13;98581.28;;;15.59;65.71
36190;BME280;22232;50.914;13.858;2023-05-19T09:06:42;98585.72;;;15.36;69.66
36190;BME280;22232;50.914;13.858;2023-05-19T09:09:11;98579.34;;;15.88;72.51
36190;BME280;22232;50.914;13.858;2023-05-19T09:11:38;98588.78;;;15.57;66.92
36190;BME280;22232;50.914;13.858;2023-05-19T09:14:06;98570.84;;;15.63;64.16
36190;BME280;22232;50.914;13.858;2023-05-19T09:16:33;98557.03;;;16.26;59.55
36190;BME280;22232;50.914;13.858;2023-05-19T09:19:01;98583.13;;;15.70;61.03
36190;BME280;22232;50.914;13.858;2023-05-19T09:21:30;98573.31;;;15.81;62.50
36190;BME280;22232;50.914;13.858;2023-05-19T09:24:04;98567.44;;;16.01;67.79
36190;BME280;22232;50.914;13.858;2023-05-19T09:26:40;98561.31;;;16.05;60.44
36190;BME280;22232;50.914;13.858;2023-05-19T09:29:25;98568.91;;;15.92;67.47
36190;BME280;22232;50.914;13.858;2023-05-19T09:31:54;98568.59;;;16.49;63.35
36190;BME280;22232;50.914;13.858;2023-05-19T09:34:27;98563.34;;;16.59;63.66
36190;BME280;22232;50.914;13.858;2023-05-19T09:36:54;98568.78;;;16.64;56.59
36190;BME280;22232;50.914;13.858;2023-05-19T09:39:24;98565.72;;;17.00;56.80
36190;BME280;22232;50.914;13.858;2023-05-19T09:41:53;98552.06;;;17.71;51.26
36190;BME280;22232;50.914;13.858;2023-05-19T09:44:22;98550.53;;;17.48;55.96
36190;BME280;22232;50.914;13.858;2023-05-19T09:46:51;98546.84;;;17.00;54.69
36190;BME280;22232;50.914;13.858;2023-05-19T09:49:23;98531.25;;;17.66;54.96
36190;BME280;22232;50.914;13.858;2023-05-19T09:51:59;98563.69;;;16.41;56.72
36190;BME280;22232;50.914;13.858;2023-05-19T09:54:29;98551.22;;;16.35;63.48
36190;BME280;22232;50.914;13.858;2023-05-19T09:57:02;98545.84;;;17.06;57.58
36190;BME280;22232;50.914;13.858;2023-05-19T09:59:32;98545.19;;;17.20;61.04
36190;BME280;22232;50.914;13.858;2023-05-19T10:02:01;98544.75;;;16.58;58.71
36190;BME280;22232;50.914;13.858;2023-05-19T10:04:30;98542.28;;;17.00;54.83
36190;BME280;22232;50.914;13.858;2023-05-19T10:06:58;98531.59;;;17.75;56.91
36190;BME280;22232;50.914;13.858;2023-05-19T10:09:28;98535.72;;;17.50;55.26
36190;BME280;22232;50.914;13.858;2023-05-19T10:11:57;98528.53;;;17.29;61.17
36190;BME280;22232;50.914;13.858;2023-05-19T10:14:27;98532.97;;;17.13;62.56
36190;BME280;22232;50.914;13.858;2023-05-19T10:16:56;98529.31;;;16.97;56.36
36190;BME280;22232;50.914;13.858;2023-05-19T10:19:26;98535.41;;;16.87;57.06
36190;BME280;22232;50.914;13.858;2023-05-19T10:21:55;98519.63;;;17.28;55.64
36190;BME280;22232;50.914;13.858;2023-05-19T10:24:23;98516.16;;;17.33;60.94
36190;BME280;22232;50.914;13.858;2023-05-19T10:26:55;98512.69;;;17.05;61.16
36190;BME280;22232;50.914;13.858;2023-05-19T10:29:27;98521.06;;;17.09;60.42
36190;BME280;22232;50.914;13.858;2023-05-19T10:32:00;98512.78;;;16.88;64.94
36190;BME280;22232;50.914;13.858;2023-05-19T10:37:30;98517.56;;;16.81;63.26
36190;BME280;22232;50.914;13.858;2023-05-19T10:40:06;98511.75;;;16.45;72.05
36190;BME280;22232;50.914;13.858;2023-05-19T10:45:47;98516.56;;;16.21;74.79
36190;BME280;22232;50.914;13.858;2023-05-19T10:48:15;98516.03;;;16.19;79.04
36190;BME280;22232;50.914;13.858;2023-05-19T10:50:44;98511.63;;;16.13;79.73
36190;BME280;22232;50.914;13.858;2023-05-19T10:53:16;98512.94;;;16.55;80.32
36190;BME280;22232;50.914;13.858;2023-05-19T10:58:38;98517.94;;;16.24;76.94
36190;BME280;22232;50.914;13.858;2023-05-19T11:01:07;98510.31;;;16.16;82.56
36190;BME280;22232;50.914;13.858;2023-05-19T11:03:45;98508.69;;;15.76;83.17
36190;BME280;22232;50.914;13.858;2023-05-19T11:06:30;98506.78;;;15.93;84.46
36190;BME280;22232;50.914;13.858;2023-05-19T11:11:44;98520.78;;;15.73;92.93
36190;BME280;22232;50.914;13.858;2023-05-19T11:14:14;98511.53;;;15.35;92.44
36190;BME280;22232;50.914;13.858;2023-05-19T11:16:46;98517.72;;;15.36;90.49
36190;BME280;22232;50.914;13.858;2023-05-19T11:19:28;98499.63;;;15.65;100.00
36190;BME280;22232;50.914;13.858;2023-05-19T11:22:09;98498.91;;;15.87;98.49
36190;BME280;22232;50.914;13.858;2023-05-19T11:24:45;98495.59;;;16.23;91.62
36190;BME280;22232;50.914;13.858;2023-05-19T11:27:29;98504.13;;;16.37;86.91
36190;BME280;22232;50.914;13.858;2023-05-19T11:30:07;98510.94;;;16.45;82.64
36190;BME280;22232;50.914;13.858;2023-05-19T11:32:37;98497.09;;;16.36;87.96
36190;BME280;22232;50.914;13.858;2023-05-19T11:35:08;98517.72;;;16.47;88.14
36190;BME280;22232;50.914;13.858;2023-05-19T11:37:36;98514.06;;;16.15;85.38
36190;BME280;22232;50.914;13.858;2023-05-19T11:40:04;98498.06;;;16.47;97.12
36190;BME280;22232;50.914;13.858;2023-05-19T11:42:34;98499.22;;;16.78;82.85
36190;BME280;22232;50.914;13.858;2023-05-19T11:45:03;98498.47;;;16.61;80.54
36190;BME280;22232;50.914;13.858;2023-05-19T11:47:31;98510.34;;;16.87;84.84
36190;BME280;22232;50.914;13.858;2023-05-19T11:50:21;98493.41;;;16.91;88.49
36190;BME280;22232;50.914;13.858;2023-05-19T11:52:50;98505.03;;;16.70;79.98
36190;BME280;22232;50.914;13.858;2023-05-19T11:55:19;98515.13;;;15.92;86.07
36190;BME280;22232;50.914;13.858;2023-05-19T11:58:00;98516.03;;;15.80;94.50
36190;BME280;22232;50.914;13.858;2023-05-19T12:00:36;98524.19;;;15.86;95.91
36190;BME280;22232;50.914;13.858;2023-05-19T12:03:06;98528.91;;;15.62;92.10
36190;BME280;22232;50.914;13.858;2023-05-19T12:05:37;98516.25;;;15.62;100.00
36190;BME280;22232;50.914;13.858;2023-05-19T12:08:10;98509.56;;;15.81;87.34
36190;BME280;22232;50.914;13.858;2023-05-19T12:10:38;98526.19;;;15.45;95.95
36190;BME280;22232;50.914;13.858;2023-05-19T12:13:06;98511.38;;;15.25;97.52
36190;BME280;22232;50.914;13.858;2023-05-19T12:15:36;98518.16;;;15.28;99.36
36190;BME280;22232;50.914;13.858;2023-05-19T12:18:04;98500.44;;;15.49;100.00
36190;BME280;22232;50.914;13.858;2023-05-19T12:20:32;98517.66;;;15.31;100.00
36190;BME280;22232;50.914;13.858;2023-05-19T12:23:02;98513.16;;;15.20;100.00
36190;BME280;22232;50.914;13.858;2023-05-19T12:25:31;98504.69;;;15.11;100.00
36190;BME280;22232;50.914;13.858;2023-05-19T12:27:59;98502.25;;;15.26;100.00
36190;BME280;22232;50.914;13.858;2023-05-19T12:30:30;98506.41;;;15.17;100.00
36190;BME280;22232;50.914;13.858;2023-05-19T12:33:00;98501.00;;;15.00;100.00
36190;BME280;22232;50.914;13.858;2023-05-19T12:35:30;98517.19;;;14.88;100.00
36190;BME280;22232;50.914;13.858;2023-05-19T12:38:03;98522.84;;;14.75;100.00
36190;BME280;22232;50.914;13.858;2023-05-19T12:40:34;98513.13;;;14.86;100.00
36190;BME280;22232;50.914;13.858;2023-05-19T12:43:04;98508.19;;;15.11;100.00
36190;BME280;22232;50.914;13.858;2023-05-19T12:45:34;98511.69;;;15.12;100.00
36190;BME280;22232;50.914;13.858;2023-05-19T12:48:13;98515.06;;;14.90;100.00
36190;BME280;22232;50.914;13.858;2023-05-19T12:50:43;98518.84;;;15.06;100.00
36190;BME280;22232;50.914;13.858;2023-05-19T12:53:14;98508.50;;;15.15;100.00
36190;BME280;22232;50.914;13.858;2023-05-19T12:55:44;98519.34;;;15.20;100.00
36190;BME280;22232;50.914;13.858;2023-05-19T12:58:12;98515.09;;;15.24;100.00
36190;BME280;22232;50.914;13.858;2023-05-19T13:00:44;98526.25;;;14.99;100.00
36190;BME280;22232;50.914;13.858;2023-05-19T13:03:18;98514.09;;;14.97;100.00
36190;BME280;22232;50.914;13.858;2023-05-19T13:05:49;98506.63;;;14.99;100.00
36190;BME280;22232;50.914;13.858;2023-05-19T13:08:20;98510.38;;;14.98;100.00
36190;BME280;22232;50.914;13.858;2023-05-19T13:10:50;98515.00;;;15.02;100.00
36190;BME280;22232;50.914;13.858;2023-05-19T13:13:17;98524.03;;;14.96;100.00
36190;BME280;22232;50.914;13.858;2023-05-19T13:15:45;98521.50;;;14.89;100.00
36190;BME280;22232;50.914;13.858;2023-05-19T13:18:15;98494.75;;;14.95;100.00
36190;BME280;22232;50.914;13.858;2023-05-19T13:20:44;98503.38;;;15.13;100.00
36190;BME280;22232;50.914;13.858;2023-05-19T13:23:12;98496.88;;;15.26;100.00
36190;BME280;22232;50.914;13.858;2023-05-19T13:25:40;98482.56;;;15.37;100.00
36190;BME280;22232;50.914;13.858;2023-05-19T13:28:09;98506.97;;;15.36;100.00
36190;BME280;22232;50.914;13.858;2023-05-19T13:30:38;98494.09;;;15.55;100.00